Hlavní strana
METAR-TAF:

METAR-TAF

Letiště :

Vardø, Norsko

zeměpisná šířka: 70-21N, zeměpisná délka: 031-03E, výška: 12 m

Aktuální stav počasí

Zpráva byla vytvořena před 12 minutami, v 10:50 UTC
Jihozápadní vítr 34 kt
Teplota -4°C
Vlhkost vzduchu 93%
Tlak 990 hPa
Viditelnost 10 km a více
Oblačno až skoro zataženo ve výšce 800 ft
nízko zvířený sníh

METAR: ENSS 251050Z 23034KT 9999 DRSN BKN008 M04/M05 Q0990 RMK WIND 500FT 23043KT

Čas: 12:02 (11:02 UTC)


TAF: chybějící

Stav a předpovědi počasí z více než 4 000 letišť (zprávy METAR a TAF).

Červené a žluté tečky na mapě představují dostupné meteorologické stanice.

Když kurzor umístíte na tečku, zobrazí se název stanice.

Pak kliknutím zobrazíte stav a předpověď počasí.

Chcete-li změnit mapu, kliknutím na zelené tlačítko se znaménkem +mapu přiblížíte, kliknutím na zelené tlačítko se znaménkem – mapu oddálíte a kliknutím na zelené šipky přejdete na sousední mapy.


METAR-TAF: